Time;durP1;ratioP1;P1;durP2;ratioP2;P2;SDS_P1;SDS_P2;PMS_P1;PMS_P2;Temp;Humidity;BMP_temperature;BMP_pressure;BME280_temperature;BME280_humidity;BME280_pressure;Samples;Min_cycle;Max_cycle;Signal;HPM_P1;HPM_P2
2022/08/08 00:01:39;;;;;;;2.17;0.98;;;13.30;99.90;;;;;;5051299;28;20249;-74
2022/08/08 00:04:45;;;;;;;1.10;0.70;;;13.20;99.90;;;;;;5043504;28;20098;-74
2022/08/08 00:07:26;;;;;;;2.47;0.90;;;13.30;99.90;;;;;;5079328;28;20095;-74
2022/08/08 00:10:02;;;;;;;0.90;0.70;;;13.40;99.90;;;;;;5059397;28;20147;-74
2022/08/08 00:12:46;;;;;;;1.85;0.90;;;13.20;99.90;;;;;;5081894;28;20036;-74
2022/08/08 00:15:18;;;;;;;1.27;0.68;;;13.30;99.90;;;;;;5051670;28;20136;-74
2022/08/08 00:17:47;;;;;;;1.33;0.60;;;13.10;99.90;;;;;;5049761;28;20066;-74
2022/08/08 00:20:24;;;;;;;0.73;0.45;;;13.20;99.90;;;;;;5047777;28;20557;-75
2022/08/08 00:22:53;;;;;;;0.60;0.40;;;13.30;99.90;;;;;;5066072;28;20045;-74
2022/08/08 00:25:44;;;;;;;1.85;0.40;;;13.20;99.90;;;;;;5050287;28;20079;-74
2022/08/08 00:28:15;;;;;;;0.25;0.25;;;13.40;99.90;;;;;;5051205;28;20499;-74
2022/08/08 00:30:50;;;;;;;0.30;0.30;;;13.40;99.90;;;;;;5052187;28;20151;-74
2022/08/08 00:33:20;;;;;;;0.43;0.30;;;13.20;99.90;;;;;;5084552;28;20086;-74
2022/08/08 00:35:45;;;;;;;0.17;0.17;;;13.10;99.90;;;;;;5050605;28;20052;-74
2022/08/08 00:38:44;;;;;;;0.43;0.30;;;13.10;99.90;;;;;;5089969;28;20047;-74
2022/08/08 00:41:40;;;;;;;0.25;0.25;;;13.00;99.90;;;;;;5051991;28;20045;-75
2022/08/08 00:44:23;;;;;;;0.28;0.28;;;13.00;99.90;;;;;;5052759;28;20335;-74
2022/08/08 00:46:51;;;;;;;0.30;0.30;;;13.00;99.90;;;;;;5055905;28;20068;-74
2022/08/08 00:49:45;;;;;;;0.30;0.30;;;13.00;99.90;;;;;;5055584;28;20047;-75
2022/08/08 00:52:42;;;;;;;0.30;0.25;;;13.00;99.90;;;;;;5052263;28;20127;-74
2022/08/08 00:55:29;;;;;;;0.73;0.20;;;13.00;99.90;;;;;;5086709;28;20403;-74
2022/08/08 00:58:32;;;;;;;0.28;0.28;;;13.20;99.90;;;;;;5055727;28;20097;-75
2022/08/08 01:01:19;;;;;;;0.32;0.32;;;13.00;99.90;;;;;;5069538;28;20071;-74
2022/08/08 01:04:03;;;;;;;0.43;0.30;;;12.90;99.90;;;;;;5053682;28;20119;-75
2022/08/08 01:06:50;;;;;;;0.40;0.30;;;12.90;99.90;;;;;;5054318;28;20051;-74
2022/08/08 01:10:01;;;;;;;0.30;0.30;;;12.90;99.90;;;;;;5051921;28;20495;-74
2022/08/08 01:12:32;;;;;;;0.20;0.20;;;13.00;99.90;;;;;;5027529;28;20136;-74
2022/08/08 01:15:35;;;;;;;0.20;0.20;;;13.00;99.90;;;;;;5053270;28;20087;-74
2022/08/08 01:18:35;;;;;;;0.88;0.45;;;13.00;99.90;;;;;;5050816;28;20070;-74
2022/08/08 01:21:29;;;;;;;0.20;0.20;;;13.00;99.90;;;;;;5053998;28;20057;-75
2022/08/08 01:23:54;;;;;;;0.40;0.30;;;13.00;99.90;;;;;;5052940;28;20056;-74
2022/08/08 01:27:14;;;;;;;0.30;0.20;;;12.80;99.90;;;;;;5076410;28;20070;-74
2022/08/08 01:29:57;;;;;;;0.30;0.30;;;12.90;99.90;;;;;;4993581;28;20043;-74
2022/08/08 01:33:07;;;;;;;0.30;0.30;;;12.80;99.90;;;;;;5062017;28;20115;-74
2022/08/08 01:35:48;;;;;;;0.30;0.30;;;12.70;99.90;;;;;;5049726;28;20036;-74
2022/08/08 01:38:46;;;;;;;0.30;0.30;;;12.80;99.90;;;;;;5087809;28;20416;-74
2022/08/08 01:41:18;;;;;;;0.20;0.20;;;12.80;99.90;;;;;;5048357;28;20065;-74
2022/08/08 01:43:55;;;;;;;0.40;0.30;;;12.70;99.90;;;;;;5052497;28;20064;-74
2022/08/08 01:46:45;;;;;;;0.73;0.40;;;12.70;99.90;;;;;;5086666;28;20391;-74
2022/08/08 01:49:14;;;;;;;0.30;0.30;;;12.50;99.90;;;;;;5051865;28;20123;-74
2022/08/08 01:52:07;;;;;;;0.50;0.40;;;12.70;99.90;;;;;;5086959;28;20036;-75
2022/08/08 01:55:03;;;;;;;0.50;0.40;;;12.70;99.90;;;;;;5052773;28;20481;-74
2022/08/08 01:57:54;;;;;;;0.30;0.30;;;12.70;99.90;;;;;;5049140;28;20033;-75
2022/08/08 02:00:35;;;;;;;0.40;0.40;;;12.70;99.90;;;;;;5054382;28;20062;-75
2022/08/08 02:03:26;;;;;;;0.35;0.35;;;12.50;99.90;;;;;;5063208;28;20079;-75
2022/08/08 02:06:28;;;;;;;0.40;0.40;;;12.60;99.90;;;;;;5086289;28;20123;-74
2022/08/08 02:09:10;;;;;;;0.52;0.40;;;12.60;99.90;;;;;;5021996;28;20131;-74
2022/08/08 02:11:40;;;;;;;0.45;0.35;;;12.70;99.90;;;;;;5067502;28;20071;-74
2022/08/08 02:14:25;;;;;;;0.32;0.32;;;12.80;99.90;;;;;;5086289;28;20082;-74
2022/08/08 02:17:13;;;;;;;0.30;0.30;;;12.60;99.90;;;;;;5085520;28;20063;-75
2022/08/08 02:19:46;;;;;;;0.30;0.30;;;12.70;99.90;;;;;;5085498;28;20411;-75
2022/08/08 02:22:34;;;;;;;0.30;0.30;;;12.90;99.90;;;;;;5051056;28;20196;-74
2022/08/08 02:25:27;;;;;;;0.30;0.30;;;12.80;99.90;;;;;;5079584;28;20565;-75
2022/08/08 02:28:04;;;;;;;0.55;0.30;;;12.80;99.90;;;;;;5050946;28;20041;-75
2022/08/08 02:31:02;;;;;;;0.38;0.38;;;12.90;99.90;;;;;;5059190;28;20044;-75
2022/08/08 02:33:46;;;;;;;;;;;12.80;99.90;;;;;;5084223;28;20047;-74
2022/08/08 02:36:32;;;;;;;0.30;0.30;;;12.80;99.90;;;;;;5081967;28;20318;-75
2022/08/08 02:39:07;;;;;;;0.20;0.20;;;13.10;99.90;;;;;;5050699;28;20052;-75
2022/08/08 02:42:05;;;;;;;0.63;0.20;;;13.10;99.90;;;;;;5083437;28;20510;-75
2022/08/08 02:44:50;;;;;;;0.75;0.40;;;13.00;99.90;;;;;;5052854;28;20042;-74
2022/08/08 02:47:44;;;;;;;0.30;0.30;;;13.30;99.90;;;;;;5078760;28;20044;-74
2022/08/08 02:50:32;;;;;;;0.22;0.22;;;13.20;99.90;;;;;;5051218;28;20780;-74
2022/08/08 02:53:02;;;;;;;0.20;0.20;;;13.20;99.90;;;;;;5086644;28;20456;-75
2022/08/08 02:56:02;;;;;;;0.30;0.30;;;13.30;99.90;;;;;;5048761;28;20082;-74
2022/08/08 02:59:22;;;;;;;0.20;0.20;;;13.30;99.90;;;;;;5052665;28;20077;-74
2022/08/08 03:02:12;;;;;;;0.52;0.30;;;13.40;99.90;;;;;;5065515;28;20055;-75
2022/08/08 03:05:29;;;;;;;0.20;0.20;;;13.00;99.90;;;;;;5032266;28;20041;-75
2022/08/08 03:08:16;;;;;;;0.20;0.20;;;13.30;99.90;;;;;;5032863;28;20344;-74
2022/08/08 03:11:16;;;;;;;0.30;0.30;;;13.60;99.90;;;;;;5041919;28;20068;-74
2022/08/08 03:13:47;;;;;;;0.20;0.20;;;13.60;99.90;;;;;;5051475;28;20068;-75
2022/08/08 03:16:32;;;;;;;0.30;0.30;;;13.60;99.90;;;;;;5078832;28;20395;-75
2022/08/08 03:19:03;;;;;;;0.30;0.30;;;13.50;99.90;;;;;;5015590;28;20049;-74
2022/08/08 03:21:28;;;;;;;0.40;0.35;;;13.60;99.90;;;;;;5052197;28;20419;-74
2022/08/08 03:23:54;;;;;;;0.30;0.30;;;13.50;99.90;;;;;;5050932;28;20028;-74
2022/08/08 03:26:28;;;;;;;0.20;0.20;;;13.20;99.90;;;;;;5051722;28;20036;-75
2022/08/08 03:29:00;;;;;;;0.40;0.32;;;13.40;99.90;;;;;;5042153;28;20109;-74
2022/08/08 03:34:14;;;;;;;0.43;0.22;;;13.60;99.90;;;;;;5049959;28;20133;-75
2022/08/08 03:36:42;;;;;;;0.20;0.20;;;13.10;99.90;;;;;;5052156;28;20071;-74
2022/08/08 03:39:10;;;;;;;0.45;0.30;;;13.30;99.90;;;;;;5083715;28;20041;-74
2022/08/08 03:41:37;;;;;;;0.40;0.30;;;13.30;99.90;;;;;;5068149;28;20044;-74
2022/08/08 03:44:02;;;;;;;;;;;13.50;99.90;;;;;;5051749;28;20039;-75
2022/08/08 03:46:28;;;;;;;0.40;0.30;;;13.10;99.90;;;;;;5085189;28;19924;-74
2022/08/08 03:48:58;;;;;;;0.30;0.30;;;13.40;99.90;;;;;;5085609;28;20050;-74
2022/08/08 03:51:25;;;;;;;0.47;0.20;;;13.40;99.90;;;;;;5050223;28;20045;-75
2022/08/08 03:53:51;;;;;;;;;;;13.20;99.90;;;;;;5049625;28;20317;-74
2022/08/08 03:56:17;;;;;;;0.52;0.30;;;13.40;99.90;;;;;;5080721;28;19963;-75
2022/08/08 03:58:48;;;;;;;0.43;0.28;;;13.00;99.90;;;;;;5050814;28;20045;-74
2022/08/08 04:01:14;;;;;;;0.30;0.20;;;13.10;99.90;;;;;;5053217;28;20045;-74
2022/08/08 04:03:43;;;;;;;;;;;13.10;99.90;;;;;;5080364;28;20043;-75
2022/08/08 04:06:09;;;;;;;0.50;0.30;;;13.30;99.90;;;;;;5082513;28;19917;-74
2022/08/08 04:08:36;;;;;;;0.52;0.38;;;13.30;99.90;;;;;;5050814;28;20044;-70
2022/08/08 04:11:04;;;;;;;0.15;0.15;;;13.20;99.90;;;;;;5064642;28;20041;-70
2022/08/08 04:13:30;;;;;;;0.57;0.32;;;13.60;99.90;;;;;;5050086;28;20051;-70
2022/08/08 04:15:56;;;;;;;0.32;0.30;;;13.70;99.90;;;;;;5050511;28;20052;-70
2022/08/08 04:18:22;;;;;;;0.30;0.30;;;13.40;99.90;;;;;;5083297;28;20230;-70
2022/08/08 04:20:47;;;;;;;0.25;0.22;;;13.70;99.90;;;;;;5054845;28;20123;-70
2022/08/08 04:23:13;;;;;;;0.30;0.30;;;13.40;99.90;;;;;;5070234;28;20040;-70
2022/08/08 04:25:39;;;;;;;0.30;0.30;;;13.60;99.90;;;;;;5021228;28;20037;-70
2022/08/08 04:28:05;;;;;;;1.95;0.35;;;13.70;99.90;;;;;;5055530;28;20791;-70
2022/08/08 04:30:31;;;;;;;0.57;0.47;;;13.70;99.90;;;;;;5072016;28;20182;-70
2022/08/08 04:32:57;;;;;;;1.52;0.47;;;13.80;99.90;;;;;;5054386;28;20403;-70
2022/08/08 04:35:23;;;;;;;0.45;0.40;;;13.50;99.90;;;;;;5086624;28;20041;-70
2022/08/08 04:37:49;;;;;;;0.50;0.43;;;13.60;99.90;;;;;;5067443;28;20058;-70
2022/08/08 04:40:15;;;;;;;0.40;0.40;;;13.70;99.90;;;;;;5054498;28;20051;-70
2022/08/08 04:42:41;;;;;;;0.40;0.40;;;13.60;99.90;;;;;;5046779;28;20040;-70
2022/08/08 04:45:07;;;;;;;0.50;0.50;;;13.70;99.90;;;;;;5053098;28;20064;-69
2022/08/08 04:47:33;;;;;;;;;;;13.70;99.90;;;;;;5047192;28;20119;-69
2022/08/08 04:49:58;;;;;;;0.40;0.40;;;13.50;99.90;;;;;;5062650;28;20331;-69
2022/08/08 04:52:24;;;;;;;0.38;0.38;;;13.70;99.90;;;;;;5051214;28;20107;-69
2022/08/08 04:54:50;;;;;;;0.77;0.60;;;13.80;99.90;;;;;;5022650;28;20480;-69
2022/08/08 04:57:15;;;;;;;0.45;0.30;;;13.70;99.90;;;;;;5048401;28;20045;-69
2022/08/08 04:59:42;;;;;;;0.30;0.30;;;13.60;99.90;;;;;;5053775;28;20040;-69
2022/08/08 05:02:08;;;;;;;0.40;0.40;;;13.50;99.90;;;;;;5071692;28;20047;-70
2022/08/08 05:04:34;;;;;;;0.68;0.40;;;13.70;99.90;;;;;;5050628;28;20037;-70
2022/08/08 05:06:59;;;;;;;0.57;0.45;;;13.80;99.90;;;;;;5050392;28;20127;-70
2022/08/08 05:09:25;;;;;;;0.43;0.43;;;13.50;99.90;;;;;;5052690;28;20063;-70
2022/08/08 05:11:51;;;;;;;0.82;0.50;;;13.80;99.90;;;;;;5053955;28;20080;-70
2022/08/08 05:14:17;;;;;;;0.50;0.50;;;13.80;99.90;;;;;;5040398;28;20036;-70
2022/08/08 05:16:42;;;;;;;0.28;0.28;;;13.60;99.90;;;;;;5049119;28;20117;-70
2022/08/08 05:19:11;;;;;;;0.30;0.30;;;13.80;99.90;;;;;;5035551;28;20084;-70
2022/08/08 05:21:43;;;;;;;0.32;0.32;;;13.80;99.90;;;;;;5049184;28;20090;-71
2022/08/08 05:24:10;;;;;;;0.30;0.30;;;14.10;99.90;;;;;;5080719;28;20383;-70
2022/08/08 05:26:38;;;;;;;0.40;0.40;;;14.00;99.90;;;;;;5050462;28;20124;-72
2022/08/08 05:29:07;;;;;;;0.57;0.40;;;14.10;99.90;;;;;;5076861;28;20074;-71
2022/08/08 05:31:34;;;;;;;0.45;0.30;;;14.40;99.90;;;;;;5066743;28;20134;-72
2022/08/08 05:34:05;;;;;;;0.52;0.40;;;14.30;99.90;;;;;;5087158;28;20063;-71
2022/08/08 05:36:34;;;;;;;0.52;0.45;;;14.30;99.90;;;;;;5049614;28;20040;-69
2022/08/08 05:39:04;;;;;;;0.30;0.30;;;14.40;99.90;;;;;;5047671;28;20099;-69
2022/08/08 05:41:35;;;;;;;1.20;0.50;;;14.60;99.90;;;;;;5052043;28;20115;-69
2022/08/08 05:44:15;;;;;;;0.40;0.40;;;14.70;99.90;;;;;;5066802;28;20098;-69
2022/08/08 05:46:41;;;;;;;1.27;0.60;;;14.70;99.90;;;;;;5049889;28;20074;-69
2022/08/08 05:49:07;;;;;;;0.95;0.50;;;14.90;99.90;;;;;;5049421;28;20148;-69
2022/08/08 05:51:33;;;;;;;;;;;14.80;99.90;;;;;;5036537;28;20354;-69
2022/08/08 05:53:58;;;;;;;1.17;0.50;;;14.80;99.90;;;;;;5035394;28;19924;-70
2022/08/08 05:56:26;;;;;;;0.40;0.40;;;15.10;99.90;;;;;;5052615;28;20040;-69
2022/08/08 05:59:02;;;;;;;0.52;0.40;;;15.20;99.90;;;;;;5054326;28;20408;-69
2022/08/08 06:01:29;;;;;;;1.17;0.40;;;15.30;99.90;;;;;;5050631;28;20039;-69
2022/08/08 06:03:57;;;;;;;;;;;15.40;99.90;;;;;;5086823;28;20424;-69
2022/08/08 06:06:24;;;;;;;1.08;0.50;;;15.40;99.90;;;;;;5053198;28;20375;-70
2022/08/08 06:08:51;;;;;;;0.70;0.40;;;15.50;99.90;;;;;;5052910;28;20045;-69
2022/08/08 06:11:18;;;;;;;0.63;0.30;;;15.50;99.90;;;;;;5085381;28;20075;-70
2022/08/08 06:13:46;;;;;;;0.65;0.20;;;15.60;99.90;;;;;;5052773;28;20570;-69
2022/08/08 06:16:12;;;;;;;0.52;0.30;;;15.70;99.90;;;;;;5052837;28;20134;-70
2022/08/08 06:18:39;;;;;;;1.38;0.60;;;15.50;99.90;;;;;;5053095;28;20044;-70
2022/08/08 06:21:07;;;;;;;0.98;0.60;;;15.80;99.90;;;;;;5052889;28;20586;-69
2022/08/08 06:23:33;;;;;;;0.50;0.50;;;15.90;99.90;;;;;;5065683;28;20209;-69
2022/08/08 06:26:09;;;;;;;0.65;0.60;;;15.60;99.90;;;;;;5077687;28;20127;-69
2022/08/08 06:28:45;;;;;;;1.00;0.70;;;16.00;99.90;;;;;;5052594;28;20082;-69
2022/08/08 06:31:16;;;;;;;0.40;0.40;;;15.60;99.90;;;;;;5050890;28;20127;-69
2022/08/08 06:34:07;;;;;;;2.13;0.90;;;15.90;99.90;;;;;;5048486;28;20514;-69
2022/08/08 06:36:41;;;;;;;1.10;0.70;;;16.00;99.90;;;;;;5085298;28;20072;-70
2022/08/08 06:39:08;;;;;;;1.13;0.70;;;16.00;99.90;;;;;;5078185;28;20044;-69
2022/08/08 06:41:46;;;;;;;0.88;0.60;;;16.00;99.90;;;;;;5072002;28;20108;-69
2022/08/08 06:44:16;;;;;;;1.20;0.60;;;16.00;99.90;;;;;;5027737;28;20112;-69
2022/08/08 06:46:43;;;;;;;1.20;0.68;;;16.00;99.90;;;;;;5047405;28;20380;-70
2022/08/08 06:49:10;;;;;;;0.60;0.40;;;16.20;99.90;;;;;;5046566;28;20177;-68
2022/08/08 06:51:36;;;;;;;0.77;0.70;;;16.20;99.90;;;;;;5049168;28;20090;-69
2022/08/08 06:54:04;;;;;;;0.95;0.60;;;16.50;99.90;;;;;;5085712;28;20080;-69
2022/08/08 06:56:30;;;;;;;1.42;0.70;;;16.50;99.90;;;;;;5034065;28;20046;-69
2022/08/08 06:58:56;;;;;;;1.25;0.73;;;17.00;99.90;;;;;;5051215;28;20037;-69
2022/08/08 07:01:28;;;;;;;1.77;0.82;;;17.30;99.90;;;;;;5050768;28;20376;-69
2022/08/08 07:03:56;;;;;;;1.15;0.73;;;17.10;99.90;;;;;;5066128;28;20419;-70
2022/08/08 07:06:24;;;;;;;1.67;0.70;;;17.30;99.90;;;;;;5082760;28;20042;-70
2022/08/08 07:08:57;;;;;;;0.98;0.50;;;17.40;99.90;;;;;;5051064;28;20044;-70
2022/08/08 07:11:28;;;;;;;0.93;0.60;;;17.60;99.90;;;;;;5052463;28;20044;-70
2022/08/08 07:13:59;;;;;;;1.20;0.70;;;17.70;99.90;;;;;;5065614;28;20049;-69
2022/08/08 07:16:48;;;;;;;1.35;0.75;;;17.70;99.90;;;;;;5049075;28;20119;-73
2022/08/08 07:19:36;;;;;;;0.60;0.55;;;17.60;99.90;;;;;;5067998;28;20376;-73
2022/08/08 07:22:05;;;;;;;1.02;0.63;;;17.70;99.90;;;;;;5052412;28;20048;-70
2022/08/08 07:24:58;;;;;;;1.67;0.75;;;17.60;99.90;;;;;;5047105;28;20143;-70
2022/08/08 07:27:25;;;;;;;2.65;0.98;;;17.40;99.90;;;;;;5078071;28;20048;-70
2022/08/08 07:29:51;;;;;;;1.00;0.65;;;17.50;99.90;;;;;;5064907;28;20047;-70
2022/08/08 07:32:18;;;;;;;1.50;0.70;;;17.40;99.90;;;;;;5085377;28;20122;-70
2022/08/08 07:34:44;;;;;;;1.10;0.70;;;17.50;99.90;;;;;;5051960;28;20166;-70
2022/08/08 07:37:11;;;;;;;;;;;17.80;99.90;;;;;;5068518;28;20993;-70
2022/08/08 07:39:40;;;;;;;1.83;0.65;;;18.20;99.90;;;;;;5051525;28;20009;-69
2022/08/08 07:42:14;;;;;;;0.57;0.40;;;18.90;99.90;;;;;;5051863;28;20071;-70
2022/08/08 07:44:46;;;;;;;0.63;0.32;;;19.50;99.90;;;;;;5050796;28;20029;-70
2022/08/08 07:47:11;;;;;;;0.95;0.60;;;19.70;99.90;;;;;;5083649;28;20432;-70
2022/08/08 07:49:38;;;;;;;;;;;19.70;99.90;;;;;;5084301;28;20061;-70
2022/08/08 07:52:06;;;;;;;1.00;0.50;;;19.80;99.90;;;;;;5050074;28;19927;-70
2022/08/08 07:54:53;;;;;;;2.15;0.50;;;20.00;99.90;;;;;;5086303;28;20665;-69
2022/08/08 07:57:39;;;;;;;0.30;0.30;;;20.20;99.90;;;;;;5048687;28;20047;-69
2022/08/08 08:00:08;;;;;;;0.98;0.30;;;20.70;99.90;;;;;;5086235;28;20111;-70
2022/08/08 08:02:51;;;;;;;1.20;0.40;;;21.20;99.90;;;;;;5054089;28;20037;-70
2022/08/08 08:05:22;;;;;;;0.47;0.32;;;21.40;99.90;;;;;;5055195;28;20074;-70
2022/08/08 08:07:54;;;;;;;0.40;0.30;;;21.40;99.90;;;;;;5053584;28;20078;-70
2022/08/08 08:10:20;;;;;;;1.42;0.40;;;21.50;99.90;;;;;;5055219;28;20259;-70
2022/08/08 08:12:57;;;;;;;0.30;0.30;;;21.50;99.90;;;;;;5053562;28;20045;-70
2022/08/08 08:15:25;;;;;;;0.22;0.20;;;21.60;99.90;;;;;;5054932;28;20115;-70
2022/08/08 08:17:57;;;;;;;1.02;0.20;;;21.50;99.90;;;;;;5054523;28;20140;-70
2022/08/08 08:20:27;;;;;;;0.60;0.30;;;21.50;99.90;;;;;;5072871;28;20052;-73
2022/08/08 08:22:53;;;;;;;2.33;0.60;;;21.20;99.90;;;;;;5051169;28;20049;-74
2022/08/08 08:25:19;;;;;;;0.98;0.40;;;20.70;99.90;;;;;;5053050;28;20102;-74
2022/08/08 08:27:45;;;;;;;;;;;20.40;99.90;;;;;;5089410;28;20059;-74
2022/08/08 08:30:11;;;;;;;2.08;0.40;;;20.30;99.90;;;;;;5055107;28;19920;-73
2022/08/08 08:32:36;;;;;;;0.57;0.30;;;20.20;99.90;;;;;;5055123;28;20071;-74
2022/08/08 08:35:03;;;;;;;;;;;20.20;99.90;;;;;;5089537;28;20036;-75
2022/08/08 08:37:29;;;;;;;0.47;0.30;;;20.20;99.90;;;;;;5089808;28;20379;-74
2022/08/08 08:39:55;;;;;;;0.35;0.30;;;20.10;99.90;;;;;;5055233;28;20040;-73
2022/08/08 08:42:22;;;;;;;;;;;20.10;99.90;;;;;;5037863;28;20048;-73
2022/08/08 08:44:48;;;;;;;;;;;20.00;99.90;;;;;;5058357;28;19927;-73
2022/08/08 08:47:16;;;;;;;0.63;0.30;;;20.10;99.90;;;;;;5055791;28;20003;-73
2022/08/08 08:49:42;;;;;;;0.47;0.35;;;20.10;99.90;;;;;;5056452;28;20051;-73
2022/08/08 08:52:08;;;;;;;;;;;20.00;99.90;;;;;;5071581;28;20036;-73
2022/08/08 08:54:35;;;;;;;0.97;0.60;;;20.10;99.90;;;;;;5087216;28;20371;-73
2022/08/08 08:57:04;;;;;;;0.68;0.50;;;20.10;99.90;;;;;;5048199;28;20048;-73
2022/08/08 08:59:33;;;;;;;0.55;0.20;;;20.00;99.90;;;;;;5053898;28;20072;-73
2022/08/08 09:02:00;;;;;;;0.70;0.38;;;20.20;99.90;;;;;;5088961;28;20403;-73
2022/08/08 09:04:29;;;;;;;0.63;0.38;;;20.10;99.90;;;;;;5071116;28;20063;-73
2022/08/08 09:06:57;;;;;;;0.90;0.50;;;20.10;99.90;;;;;;5072794;28;20113;-73
2022/08/08 09:09:25;;;;;;;0.35;0.20;;;20.10;99.90;;;;;;5038148;28;20036;-73
2022/08/08 09:11:53;;;;;;;0.35;0.17;;;20.20;99.90;;;;;;5054747;28;20050;-73
2022/08/08 09:14:24;;;;;;;0.57;0.28;;;20.30;99.90;;;;;;5068646;28;20059;-73
2022/08/08 09:16:51;;;;;;;0.32;0.30;;;20.40;99.90;;;;;;5055213;28;20055;-73
2022/08/08 09:19:18;;;;;;;0.40;0.40;;;20.50;99.90;;;;;;5054981;28;20450;-73
2022/08/08 09:21:48;;;;;;;0.30;0.10;;;20.60;99.90;;;;;;5053167;28;20049;-73
2022/08/08 09:24:14;;;;;;;0.45;0.38;;;20.60;99.90;;;;;;5054133;28;20079;-73
2022/08/08 09:26:57;;;;;;;0.13;0.13;;;20.60;99.90;;;;;;5053106;28;20068;-73
2022/08/08 09:29:24;;;;;;;0.55;0.30;;;20.70;99.90;;;;;;5046516;28;20502;-73
2022/08/08 09:31:59;;;;;;;0.82;0.30;;;20.60;99.90;;;;;;5053823;28;20105;-73
2022/08/08 09:34:26;;;;;;;0.70;0.30;;;20.50;99.90;;;;;;5054449;28;20047;-73
2022/08/08 09:37:07;;;;;;;1.23;0.25;;;20.50;99.90;;;;;;5052599;28;22243;-73
2022/08/08 09:40:03;;;;;;;0.98;0.30;;;20.60;99.90;;;;;;5079184;28;20479;-73
2022/08/08 09:42:40;;;;;;;0.50;0.30;;;20.50;99.90;;;;;;5077769;28;20845;-73
2022/08/08 09:45:21;;;;;;;0.95;0.30;;;20.70;99.90;;;;;;5047612;28;20120;-73
2022/08/08 09:47:48;;;;;;;0.52;0.28;;;20.80;99.90;;;;;;5051708;28;20041;-74
2022/08/08 09:50:16;;;;;;;0.57;0.20;;;20.80;99.90;;;;;;5052568;28;20380;-73
2022/08/08 09:52:49;;;;;;;0.22;0.20;;;20.90;99.90;;;;;;5053127;28;20066;-73
2022/08/08 09:55:16;;;;;;;0.55;0.28;;;21.00;99.90;;;;;;5052339;28;20146;-73
2022/08/08 09:57:45;;;;;;;0.50;0.30;;;20.90;99.90;;;;;;5050100;28;20040;-73
2022/08/08 10:00:13;;;;;;;0.65;0.30;;;21.20;99.90;;;;;;5084886;28;20037;-73
2022/08/08 10:02:41;;;;;;;1.10;0.50;;;21.20;99.90;;;;;;5052759;28;20049;-73
2022/08/08 10:05:09;;;;;;;1.55;0.50;;;21.00;99.90;;;;;;5052880;28;20079;-73
2022/08/08 10:07:35;;;;;;;1.55;0.50;;;21.10;99.90;;;;;;5070294;28;20041;-73
2022/08/08 10:10:02;;;;;;;0.85;0.30;;;21.00;99.90;;;;;;5052734;28;20105;-73
2022/08/08 10:12:32;;;;;;;0.40;0.30;;;21.10;99.90;;;;;;5053928;28;20513;-74
2022/08/08 10:15:00;;;;;;;0.88;0.45;;;21.20;99.90;;;;;;5047112;28;20045;-73
2022/08/08 10:17:26;;;;;;;1.25;0.40;;;21.10;99.90;;;;;;5051699;28;20080;-73
2022/08/08 10:19:57;;;;;;;0.43;0.20;;;21.20;99.90;;;;;;5053094;28;20156;-73
2022/08/08 10:22:23;;;;;;;0.95;0.40;;;21.30;99.90;;;;;;5056110;28;20123;-73
2022/08/08 10:25:02;;;;;;;0.22;0.22;;;21.20;99.90;;;;;;5085329;28;20107;-73
2022/08/08 10:27:29;;;;;;;2.33;0.30;;;21.20;99.90;;;;;;5049767;28;20025;-74
2022/08/08 10:30:00;;;;;;;1.10;0.30;;;21.00;99.90;;;;;;5068093;28;20047;-73
2022/08/08 10:32:42;;;;;;;0.60;0.40;;;21.10;99.90;;;;;;5043596;28;20488;-73
2022/08/08 10:35:13;;;;;;;1.15;0.52;;;21.20;99.90;;;;;;5083199;28;20115;-74
2022/08/08 10:37:50;;;;;;;1.15;0.55;;;21.10;99.90;;;;;;5050740;28;20041;-73
2022/08/08 10:40:16;;;;;;;0.60;0.40;;;21.10;99.90;;;;;;5050640;28;20151;-74
2022/08/08 10:42:43;;;;;;;0.60;0.30;;;21.10;99.90;;;;;;5066990;28;20067;-74
2022/08/08 10:45:10;;;;;;;0.68;0.30;;;21.10;99.90;;;;;;5069499;28;20402;-74
2022/08/08 10:47:37;;;;;;;0.43;0.20;;;21.20;99.90;;;;;;5052783;28;20467;-74
2022/08/08 10:50:06;;;;;;;1.27;0.38;;;21.40;99.90;;;;;;5053127;28;20044;-73
2022/08/08 10:52:35;;;;;;;2.20;0.38;;;21.30;99.90;;;;;;5052574;28;20457;-73
2022/08/08 10:55:12;;;;;;;1.67;0.38;;;21.40;99.90;;;;;;5071105;28;20048;-73
2022/08/08 10:57:49;;;;;;;0.77;0.40;;;21.40;99.90;;;;;;5040363;28;20036;-73
2022/08/08 11:00:23;;;;;;;1.92;0.40;;;21.40;99.90;;;;;;5045096;28;20120;-74
2022/08/08 11:02:50;;;;;;;0.77;0.38;;;21.50;99.90;;;;;;5052716;28;20051;-73
2022/08/08 11:05:17;;;;;;;1.17;0.55;;;21.60;99.90;;;;;;5053369;28;20036;-74
2022/08/08 11:07:48;;;;;;;1.13;0.40;;;21.60;99.90;;;;;;5052411;28;20506;-74
2022/08/08 11:10:17;;;;;;;1.45;0.45;;;21.50;99.90;;;;;;5028359;28;20052;-74
2022/08/08 11:12:51;;;;;;;1.65;0.68;;;21.40;99.90;;;;;;5082393;28;20050;-76
2022/08/08 11:15:19;;;;;;;0.65;0.40;;;21.30;99.90;;;;;;5036070;28;20119;-75
2022/08/08 11:17:46;;;;;;;1.15;0.43;;;21.20;99.90;;;;;;5052636;28;20095;-75
2022/08/08 11:20:17;;;;;;;0.85;0.40;;;21.20;99.90;;;;;;5072403;28;20053;-74
2022/08/08 11:22:48;;;;;;;1.45;0.50;;;21.20;99.90;;;;;;5052910;28;20052;-73
2022/08/08 11:25:14;;;;;;;0.95;0.32;;;21.40;99.90;;;;;;5051892;28;20050;-74
2022/08/08 11:27:41;;;;;;;0.55;0.32;;;21.40;99.90;;;;;;5051945;28;20041;-73
2022/08/08 11:30:09;;;;;;;0.40;0.40;;;21.50;99.90;;;;;;5052783;28;20419;-73
2022/08/08 11:32:41;;;;;;;0.95;0.40;;;21.50;99.90;;;;;;5051940;28;20037;-74
2022/08/08 11:35:08;;;;;;;0.47;0.30;;;21.50;99.90;;;;;;5033208;28;20572;-73
2022/08/08 11:37:35;;;;;;;0.77;0.35;;;21.60;99.90;;;;;;5076337;28;20396;-73
2022/08/08 11:40:04;;;;;;;0.65;0.30;;;21.60;99.90;;;;;;5052199;28;20057;-73
2022/08/08 11:42:31;;;;;;;0.55;0.28;;;21.60;99.90;;;;;;5051372;28;20036;-73
2022/08/08 11:44:57;;;;;;;0.90;0.30;;;21.70;99.90;;;;;;5039012;28;20045;-73
2022/08/08 11:47:25;;;;;;;1.05;0.50;;;21.50;99.90;;;;;;5035604;28;20509;-73
2022/08/08 11:49:58;;;;;;;0.50;0.30;;;21.40;99.90;;;;;;5051928;28;20062;-73
2022/08/08 11:52:24;;;;;;;1.15;0.30;;;21.50;99.90;;;;;;5067439;28;20118;-75
2022/08/08 11:54:50;;;;;;;0.82;0.30;;;21.60;99.90;;;;;;5080826;28;20048;-76
2022/08/08 11:57:16;;;;;;;0.85;0.40;;;21.70;99.90;;;;;;5051184;28;20143;-75
2022/08/08 11:59:54;;;;;;;0.75;0.50;;;21.60;99.90;;;;;;5048179;28;20563;-75
2022/08/08 12:02:22;;;;;;;0.90;0.30;;;21.60;99.90;;;;;;5084318;28;20040;-74
2022/08/08 12:04:50;;;;;;;0.85;0.40;;;21.60;99.90;;;;;;5047913;28;20403;-79
2022/08/08 12:07:17;;;;;;;1.40;0.47;;;21.60;99.90;;;;;;5051716;28;20082;-74
2022/08/08 12:09:42;;;;;;;1.10;0.32;;;21.50;99.90;;;;;;5045303;28;20122;-73
2022/08/08 12:12:08;;;;;;;0.40;0.30;;;21.40;99.90;;;;;;5067793;28;20040;-73
2022/08/08 12:14:34;;;;;;;0.30;0.20;;;21.30;99.90;;;;;;5051708;28;20118;-73
2022/08/08 12:16:59;;;;;;;0.40;0.35;;;21.30;99.90;;;;;;5052566;28;20084;-74
2022/08/08 12:19:25;;;;;;;0.98;0.40;;;21.30;99.90;;;;;;5050071;28;20049;-74
2022/08/08 12:21:51;;;;;;;0.93;0.40;;;21.20;99.90;;;;;;5035819;28;20458;-74
2022/08/08 12:24:20;;;;;;;2.03;0.40;;;21.20;99.90;;;;;;5031736;28;20036;-73
2022/08/08 12:26:49;;;;;;;1.08;0.38;;;21.20;99.90;;;;;;5052433;28;20099;-73
2022/08/08 12:29:33;;;;;;;0.63;0.40;;;21.10;99.90;;;;;;5052139;28;20479;-74
2022/08/08 12:32:09;;;;;;;0.70;0.40;;;21.20;99.90;;;;;;5052597;28;20127;-74
2022/08/08 12:34:35;;;;;;;0.47;0.30;;;21.30;99.90;;;;;;5070666;28;20041;-74
2022/08/08 12:37:06;;;;;;;0.75;0.30;;;21.30;99.90;;;;;;5052266;28;20082;-73
2022/08/08 12:39:32;;;;;;;0.65;0.40;;;21.20;99.70;;;;;;5052981;28;20391;-74
2022/08/08 12:42:01;;;;;;;0.25;0.20;;;21.20;99.90;;;;;;5055669;28;20056;-73
2022/08/08 12:44:29;;;;;;;0.38;0.17;;;21.30;99.90;;;;;;5056100;28;20471;-73
2022/08/08 12:46:56;;;;;;;1.13;0.40;;;21.50;99.90;;;;;;5039542;28;20048;-74
2022/08/08 12:49:27;;;;;;;0.52;0.22;;;21.90;99.90;;;;;;5056006;28;20040;-73
2022/08/08 12:51:54;;;;;;;0.63;0.30;;;22.70;99.90;;;;;;5055305;28;20046;-73
2022/08/08 12:54:33;;;;;;;0.80;0.38;;;23.30;99.70;;;;;;5037567;28;21587;-74
2022/08/08 12:56:59;;;;;;;1.33;0.50;;;23.20;97.90;;;;;;5088793;28;20134;-73
2022/08/08 12:59:29;;;;;;;2.75;0.60;;;23.10;97.90;;;;;;5072090;28;20040;-74
2022/08/08 13:01:56;;;;;;;0.85;0.43;;;23.20;98.50;;;;;;5055168;28;20048;-74
2022/08/08 13:04:33;;;;;;;0.40;0.40;;;23.20;98.50;;;;;;5041748;28;20033;-74
2022/08/08 13:07:04;;;;;;;1.00;0.40;;;23.10;99.20;;;;;;5049388;28;20042;-74
2022/08/08 13:09:45;;;;;;;2.53;0.60;;;23.10;99.80;;;;;;5053768;28;20119;-74
2022/08/08 13:12:23;;;;;;;1.33;0.40;;;22.80;99.70;;;;;;5053872;28;20134;-75
2022/08/08 13:14:50;;;;;;;0.70;0.40;;;23.00;99.90;;;;;;5054118;28;20507;-74
2022/08/08 13:17:21;;;;;;;2.50;0.55;;;22.60;99.80;;;;;;5071624;28;20044;-75
2022/08/08 13:19:46;;;;;;;1.33;0.57;;;22.60;99.90;;;;;;5055044;28;20131;-74
2022/08/08 13:22:16;;;;;;;1.27;0.55;;;22.70;99.90;;;;;;5057308;28;20124;-70
2022/08/08 13:24:42;;;;;;;1.45;0.60;;;22.50;99.90;;;;;;5054705;28;20033;-70